createdAt,value
2023-03-31T00:02:01.923Z,20.30
2023-03-31T00:04:28.623Z,20.29
2023-03-31T00:06:55.435Z,20.29
2023-03-31T00:09:24.586Z,20.29
2023-03-31T00:11:51.249Z,20.28
2023-03-31T00:14:17.951Z,20.28
2023-03-31T00:16:44.394Z,20.28
2023-03-31T00:19:17.852Z,20.27
2023-03-31T00:21:44.706Z,20.27
2023-03-31T00:24:11.345Z,20.27
2023-03-31T00:26:37.745Z,20.26
2023-03-31T00:29:04.548Z,20.25
2023-03-31T00:31:30.958Z,20.26
2023-03-31T00:33:57.315Z,20.25
2023-03-31T00:36:29.718Z,20.25
2023-03-31T00:38:56.619Z,20.25
2023-03-31T00:41:22.954Z,20.25
2023-03-31T00:44:13.033Z,20.24
2023-03-31T00:46:44.432Z,20.23
2023-03-31T00:49:21.689Z,20.24
2023-03-31T00:51:48.036Z,20.23
2023-03-31T00:54:15.404Z,20.23
2023-03-31T00:56:42.172Z,20.23
2023-03-31T00:59:09.138Z,20.22
2023-03-31T01:01:35.889Z,20.21
2023-03-31T01:04:03.011Z,20.21
2023-03-31T01:06:30.900Z,20.21
2023-03-31T01:08:57.250Z,20.21
2023-03-31T01:11:24.266Z,20.19
2023-03-31T01:13:51.711Z,20.19
2023-03-31T01:16:18.172Z,20.19
2023-03-31T01:18:49.817Z,20.19
2023-03-31T01:21:42.677Z,20.18
2023-03-31T01:24:27.160Z,20.18
2023-03-31T01:27:08.522Z,20.18
2023-03-31T01:29:49.270Z,20.17
2023-03-31T01:32:21.824Z,20.18
2023-03-31T01:34:53.027Z,20.17
2023-03-31T01:37:23.116Z,20.16
2023-03-31T01:39:57.608Z,20.16
2023-03-31T01:42:26.037Z,20.15
2023-03-31T01:44:55.929Z,20.15
2023-03-31T01:47:25.693Z,20.15
2023-03-31T01:49:55.583Z,20.14
2023-03-31T01:52:29.144Z,20.14
2023-03-31T01:54:59.026Z,20.13
2023-03-31T01:57:31.233Z,20.12
2023-03-31T02:00:04.921Z,20.13
2023-03-31T02:02:39.877Z,20.13
2023-03-31T02:05:07.789Z,20.13
2023-03-31T02:07:35.958Z,20.12
2023-03-31T02:10:03.740Z,20.11
2023-03-31T02:12:30.953Z,20.11
2023-03-31T02:14:57.277Z,20.11
2023-03-31T02:17:30.477Z,20.11
2023-03-31T02:19:57.244Z,20.11
2023-03-31T02:22:23.997Z,20.11
2023-03-31T02:24:50.667Z,20.09
2023-03-31T02:27:26.947Z,20.09
2023-03-31T02:29:53.268Z,20.08
2023-03-31T02:32:29.842Z,20.08
2023-03-31T02:34:56.209Z,20.07
2023-03-31T02:37:22.541Z,20.08
2023-03-31T02:39:49.226Z,20.08
2023-03-31T02:42:16.051Z,20.06
2023-03-31T02:44:42.397Z,20.06
2023-03-31T02:47:09.710Z,20.06
2023-03-31T02:49:36.137Z,20.07
2023-03-31T02:52:06.438Z,20.07
2023-03-31T02:54:37.538Z,20.11
2023-03-31T02:57:08.054Z,20.13
2023-03-31T02:59:39.343Z,20.17
2023-03-31T03:02:08.277Z,20.18
2023-03-31T03:04:42.151Z,20.21
2023-03-31T03:07:13.366Z,20.22
2023-03-31T03:09:58.681Z,20.22
2023-03-31T03:12:33.718Z,20.22
2023-03-31T03:15:01.325Z,20.22
2023-03-31T03:17:32.645Z,20.21
2023-03-31T03:19:59.958Z,20.22
2023-03-31T03:22:26.317Z,20.21
2023-03-31T03:24:53.423Z,20.22
2023-03-31T03:27:22.112Z,20.22
2023-03-31T03:29:48.792Z,20.21
2023-03-31T03:32:15.216Z,20.23
2023-03-31T03:34:41.548Z,20.23
2023-03-31T03:37:07.883Z,20.24
2023-03-31T03:39:34.208Z,20.25
2023-03-31T03:42:00.780Z,20.26
2023-03-31T03:44:27.216Z,20.26
2023-03-31T03:46:53.532Z,20.27
2023-03-31T03:49:20.538Z,20.26
2023-03-31T03:51:46.909Z,20.28
2023-03-31T03:54:13.232Z,20.26
2023-03-31T03:56:39.567Z,20.26
2023-03-31T03:59:05.883Z,20.25
2023-03-31T04:01:32.217Z,20.25
2023-03-31T04:03:58.536Z,20.25
2023-03-31T04:06:24.855Z,20.25
2023-03-31T04:08:51.173Z,20.25
2023-03-31T04:11:19.099Z,20.25
2023-03-31T04:13:45.635Z,20.24
2023-03-31T04:16:12.010Z,20.24
2023-03-31T04:18:42.582Z,20.23
2023-03-31T04:21:12.268Z,20.22
2023-03-31T04:23:42.631Z,20.22
2023-03-31T04:26:09.449Z,20.21
2023-03-31T04:28:36.370Z,20.21
2023-03-31T04:31:02.828Z,20.21
2023-03-31T04:33:29.182Z,20.23
2023-03-31T04:35:55.561Z,20.25
2023-03-31T04:38:22.562Z,20.25
2023-03-31T04:40:49.592Z,20.27
2023-03-31T04:43:16.177Z,20.27
2023-03-31T04:45:42.562Z,20.29
2023-03-31T04:48:08.923Z,20.28
2023-03-31T04:50:35.652Z,20.29
2023-03-31T04:53:02.283Z,20.29
2023-03-31T04:55:28.655Z,20.29
2023-03-31T04:57:54.982Z,20.28
2023-03-31T05:00:21.575Z,20.28
2023-03-31T05:02:47.951Z,20.27
2023-03-31T05:05:14.374Z,20.27
2023-03-31T05:07:40.746Z,20.27
2023-03-31T05:10:07.238Z,20.27
2023-03-31T05:12:39.396Z,20.26
2023-03-31T05:15:05.991Z,20.24
2023-03-31T05:17:32.995Z,20.30
2023-03-31T05:19:59.430Z,20.28
2023-03-31T05:22:25.913Z,19.58
2023-03-31T05:24:52.457Z,18.88
2023-03-31T05:27:19.334Z,18.43
2023-03-31T05:29:45.705Z,18.49
2023-03-31T05:32:12.052Z,18.81
2023-03-31T05:34:38.411Z,18.99
2023-03-31T05:37:04.729Z,19.01
2023-03-31T05:39:32.978Z,19.08
2023-03-31T05:41:59.693Z,19.53
2023-03-31T05:44:27.183Z,19.44
2023-03-31T05:46:53.712Z,19.78
2023-03-31T05:49:20.043Z,19.76
2023-03-31T05:51:46.758Z,19.70
2023-03-31T05:54:13.121Z,19.59
2023-03-31T05:56:39.535Z,19.67
2023-03-31T05:59:06.264Z,20.13
2023-03-31T06:01:32.757Z,20.30
2023-03-31T06:03:59.330Z,20.48
2023-03-31T06:06:26.094Z,20.18
2023-03-31T06:08:52.450Z,20.20
2023-03-31T06:11:19.515Z,20.24
2023-03-31T06:13:46.009Z,20.24
2023-03-31T06:16:12.717Z,20.45
2023-03-31T06:18:39.217Z,20.83
2023-03-31T06:21:05.925Z,20.95
2023-03-31T06:23:32.665Z,20.96
2023-03-31T06:26:03.043Z,20.99
2023-03-31T06:28:29.607Z,21.15
2023-03-31T06:31:02.581Z,20.88
2023-03-31T06:33:28.980Z,20.89
2023-03-31T06:35:56.277Z,20.80
2023-03-31T06:38:22.741Z,20.90
2023-03-31T06:40:49.065Z,21.06
2023-03-31T06:43:15.433Z,21.19
2023-03-31T06:45:41.771Z,21.37
2023-03-31T06:48:08.422Z,21.36
2023-03-31T06:50:37.042Z,21.32
2023-03-31T06:53:03.372Z,21.22
2023-03-31T06:55:29.696Z,21.24
2023-03-31T06:57:56.445Z,21.05
2023-03-31T07:00:23.267Z,21.01
2023-03-31T07:02:49.862Z,20.96
2023-03-31T07:05:16.252Z,21.03
2023-03-31T07:07:45.802Z,21.04
2023-03-31T07:10:12.665Z,21.06
2023-03-31T07:12:38.986Z,21.13
2023-03-31T07:15:05.678Z,21.06
2023-03-31T07:17:32.129Z,21.08
2023-03-31T07:19:58.880Z,21.11
2023-03-31T07:22:25.374Z,20.99
2023-03-31T07:24:51.860Z,20.79
2023-03-31T07:27:18.186Z,21.04
2023-03-31T07:29:44.536Z,21.15
2023-03-31T07:32:11.218Z,21.14
2023-03-31T07:34:38.908Z,21.08
2023-03-31T07:37:05.238Z,21.10
2023-03-31T07:39:31.608Z,21.08
2023-03-31T07:41:57.931Z,21.11
2023-03-31T07:44:24.253Z,21.10
2023-03-31T07:46:50.600Z,20.53
2023-03-31T07:49:16.985Z,20.29
2023-03-31T07:51:43.325Z,20.73
2023-03-31T07:54:09.651Z,21.04
2023-03-31T07:56:36.364Z,21.23
2023-03-31T07:59:02.765Z,21.20
2023-03-31T08:01:29.814Z,21.17
2023-03-31T08:03:56.933Z,20.96
2023-03-31T08:06:23.701Z,21.02
2023-03-31T08:08:50.148Z,21.15
2023-03-31T08:11:16.793Z,21.11
2023-03-31T08:13:43.138Z,20.99
2023-03-31T08:16:09.653Z,20.50
2023-03-31T08:18:36.453Z,20.51
2023-03-31T08:21:02.812Z,20.62
2023-03-31T08:23:29.148Z,20.86
2023-03-31T08:25:55.483Z,21.09
2023-03-31T08:28:22.117Z,21.07
2023-03-31T08:30:48.457Z,21.21
2023-03-31T08:33:14.810Z,21.22
2023-03-31T08:35:41.173Z,21.29
2023-03-31T08:38:07.565Z,21.30
2023-03-31T08:40:33.889Z,21.39
2023-03-31T08:43:05.481Z,21.02
2023-03-31T08:45:36.043Z,20.83
2023-03-31T08:48:05.940Z,20.90
2023-03-31T08:50:33.730Z,20.88
2023-03-31T08:53:07.517Z,20.84
2023-03-31T08:55:43.631Z,20.84
2023-03-31T08:58:15.241Z,20.88
2023-03-31T09:00:51.640Z,20.89
2023-03-31T09:03:19.227Z,20.87
2023-03-31T09:06:00.256Z,20.90
2023-03-31T09:08:27.962Z,20.90
2023-03-31T09:11:07.884Z,21.05
2023-03-31T09:13:38.862Z,21.18
2023-03-31T09:16:08.783Z,21.33
2023-03-31T09:18:35.757Z,21.40
2023-03-31T09:21:04.681Z,21.37
2023-03-31T09:23:33.752Z,21.28
2023-03-31T09:26:00.292Z,21.24
2023-03-31T09:28:30.343Z,21.24
2023-03-31T09:30:56.684Z,21.21
2023-03-31T09:33:22.936Z,21.21
2023-03-31T09:35:51.445Z,21.25
2023-03-31T09:38:18.502Z,21.11
2023-03-31T09:40:44.871Z,21.05
2023-03-31T09:43:24.132Z,21.16
2023-03-31T09:46:07.858Z,21.12
2023-03-31T09:48:36.172Z,20.63
2023-03-31T09:51:04.777Z,20.19
2023-03-31T09:53:35.084Z,20.05
2023-03-31T09:56:01.781Z,20.06
2023-03-31T09:58:28.122Z,20.27
2023-03-31T10:01:01.781Z,20.50
2023-03-31T10:03:29.472Z,20.63
2023-03-31T10:05:56.237Z,20.66
2023-03-31T10:08:32.681Z,20.73
2023-03-31T10:11:02.039Z,20.79
2023-03-31T10:13:40.612Z,20.80
2023-03-31T10:16:09.944Z,20.81
2023-03-31T10:18:39.845Z,20.82
2023-03-31T10:21:26.952Z,20.79
2023-03-31T10:23:53.656Z,20.57
2023-03-31T10:26:21.032Z,20.43
2023-03-31T10:28:49.348Z,20.35
2023-03-31T10:31:15.988Z,20.39
2023-03-31T10:33:46.388Z,20.44
2023-03-31T10:36:15.701Z,20.48
2023-03-31T10:38:45.193Z,20.49
2023-03-31T10:41:12.656Z,20.50
2023-03-31T10:43:42.334Z,20.49
2023-03-31T10:46:08.721Z,20.50
2023-03-31T10:48:39.620Z,20.57
2023-03-31T10:51:06.637Z,20.58
2023-03-31T10:53:39.655Z,20.44
2023-03-31T10:56:05.897Z,20.58
2023-03-31T10:58:34.293Z,20.65
2023-03-31T11:01:07.212Z,20.67
2023-03-31T11:03:39.873Z,20.76
2023-03-31T11:06:09.284Z,20.75
2023-03-31T11:08:44.377Z,20.76
2023-03-31T11:11:16.490Z,20.76
2023-03-31T11:13:52.928Z,20.77
2023-03-31T11:27:55.495Z,20.66
2023-03-31T11:30:25.926Z,20.68
2023-03-31T11:32:56.110Z,20.65
2023-03-31T11:35:29.317Z,20.63
2023-03-31T11:37:55.564Z,20.64
2023-03-31T11:40:26.303Z,20.60
2023-03-31T11:42:58.668Z,20.59
2023-03-31T11:45:26.480Z,20.57
2023-03-31T11:47:53.727Z,20.55
2023-03-31T11:50:21.028Z,20.52
2023-03-31T11:52:50.761Z,20.51
2023-03-31T11:55:17.766Z,20.53
2023-03-31T11:58:01.989Z,20.55
2023-03-31T12:00:29.554Z,20.66
2023-03-31T12:02:59.834Z,20.65
2023-03-31T12:05:26.526Z,20.70
2023-03-31T12:07:56.051Z,20.73
2023-03-31T12:10:34.074Z,20.77
2023-03-31T12:13:07.440Z,20.77
2023-03-31T12:15:34.408Z,20.78
2023-03-31T12:18:01.819Z,20.78
2023-03-31T12:20:32.486Z,20.77
2023-03-31T12:22:59.207Z,20.79
2023-03-31T12:25:28.413Z,20.78
2023-03-31T12:27:56.467Z,20.78
2023-03-31T12:30:34.603Z,20.78
2023-03-31T12:33:07.836Z,20.46
2023-03-31T12:35:41.590Z,20.50
2023-03-31T12:38:07.887Z,20.63
2023-03-31T12:40:57.504Z,20.65
2023-03-31T12:43:42.608Z,20.70
2023-03-31T12:46:24.145Z,20.69
2023-03-31T12:48:58.772Z,20.70
2023-03-31T12:51:43.865Z,20.71
2023-03-31T12:54:27.307Z,20.70
2023-03-31T12:57:13.606Z,20.72
2023-03-31T12:59:41.146Z,20.71
2023-03-31T13:02:21.836Z,20.66
2023-03-31T13:04:50.428Z,20.68
2023-03-31T13:07:29.136Z,20.79
2023-03-31T13:09:59.469Z,20.92
2023-03-31T13:12:27.870Z,20.89
2023-03-31T13:14:55.024Z,20.96
2023-03-31T13:17:25.530Z,20.97
2023-03-31T13:19:51.999Z,21.03
2023-03-31T13:22:28.859Z,20.89
2023-03-31T13:24:55.841Z,21.00
2023-03-31T13:27:29.537Z,21.29
2023-03-31T13:29:56.318Z,21.42
2023-03-31T13:32:23.588Z,21.51
2023-03-31T13:34:54.588Z,21.28
2023-03-31T13:37:45.197Z,21.26
2023-03-31T13:40:27.311Z,21.26
2023-03-31T13:42:57.573Z,21.26
2023-03-31T13:45:27.125Z,21.28
2023-03-31T13:48:04.238Z,21.38
2023-03-31T13:50:37.583Z,21.46
2023-03-31T13:53:10.140Z,21.47
2023-03-31T13:55:55.313Z,21.77
2023-03-31T13:58:40.553Z,21.82
2023-03-31T14:01:27.480Z,21.58
2023-03-31T14:03:53.881Z,21.93
2023-03-31T14:06:33.539Z,21.94
2023-03-31T14:09:01.107Z,22.06
2023-03-31T14:11:28.365Z,22.03
2023-03-31T14:14:03.731Z,22.08
2023-03-31T14:16:31.685Z,22.06
2023-03-31T14:19:07.944Z,22.03
2023-03-31T14:21:42.742Z,21.95
2023-03-31T14:24:21.960Z,22.08
2023-03-31T14:26:54.430Z,21.99
2023-03-31T14:29:21.188Z,22.15
2023-03-31T14:31:49.868Z,22.27
2023-03-31T14:34:19.821Z,22.21
2023-03-31T14:36:57.668Z,22.19
2023-03-31T14:39:24.431Z,22.18
2023-03-31T14:41:53.803Z,22.04
2023-03-31T14:44:22.982Z,22.00
2023-03-31T14:46:49.341Z,21.95
2023-03-31T14:49:19.800Z,22.33
2023-03-31T14:51:46.761Z,22.43
2023-03-31T14:54:18.096Z,22.34
2023-03-31T14:56:45.221Z,22.33
2023-03-31T14:59:13.344Z,22.13
2023-03-31T15:01:39.736Z,21.85
2023-03-31T15:04:12.733Z,21.72
2023-03-31T15:06:41.833Z,21.66
2023-03-31T15:09:08.223Z,21.63
2023-03-31T15:11:34.985Z,21.69
2023-03-31T15:14:05.104Z,21.62
2023-03-31T15:16:32.263Z,21.71
2023-03-31T15:18:59.748Z,21.74
2023-03-31T15:21:26.945Z,22.00
2023-03-31T15:23:53.911Z,21.92
2023-03-31T15:26:24.936Z,21.94
2023-03-31T15:28:57.981Z,21.96
2023-03-31T15:31:27.027Z,21.93
2023-03-31T15:33:53.648Z,21.96
2023-03-31T15:36:21.067Z,21.93
2023-03-31T15:38:47.484Z,21.87
2023-03-31T15:41:14.146Z,21.87
2023-03-31T15:43:46.526Z,21.94
2023-03-31T15:46:25.615Z,22.04
2023-03-31T15:48:54.973Z,22.13
2023-03-31T15:51:36.843Z,22.11
2023-03-31T15:54:03.204Z,21.70
2023-03-31T15:56:38.226Z,22.06
2023-03-31T15:59:05.154Z,22.15
2023-03-31T16:01:35.722Z,22.11
2023-03-31T16:04:02.399Z,22.29
2023-03-31T16:06:36.842Z,22.43
2023-03-31T16:09:08.048Z,22.28
2023-03-31T16:11:35.982Z,22.36
2023-03-31T16:14:02.341Z,22.39
2023-03-31T16:16:28.816Z,22.36
2023-03-31T16:19:04.079Z,22.08
2023-03-31T16:21:33.607Z,21.89
2023-03-31T16:23:59.949Z,21.94
2023-03-31T16:26:27.786Z,22.03
2023-03-31T16:28:54.806Z,22.14
2023-03-31T16:31:28.015Z,22.23
2023-03-31T16:33:54.985Z,21.96
2023-03-31T16:36:21.394Z,21.81
2023-03-31T16:38:47.774Z,21.84
2023-03-31T16:41:15.924Z,22.00
2023-03-31T16:43:43.208Z,21.97
2023-03-31T16:46:09.532Z,22.07
2023-03-31T16:48:35.956Z,21.94
2023-03-31T16:51:02.334Z,21.73
2023-03-31T16:53:31.925Z,21.63
2023-03-31T16:55:58.267Z,21.62
2023-03-31T16:58:24.637Z,21.62
2023-03-31T17:00:51.316Z,21.62
2023-03-31T17:03:17.933Z,21.65
2023-03-31T17:05:44.945Z,21.71
2023-03-31T17:08:11.330Z,21.63
2023-03-31T17:10:37.770Z,21.57
2023-03-31T17:13:04.097Z,21.50
2023-03-31T17:15:30.458Z,21.46
2023-03-31T17:17:58.757Z,21.58
2023-03-31T17:20:25.523Z,21.63
2023-03-31T17:22:52.839Z,21.62
2023-03-31T17:25:19.221Z,21.53
2023-03-31T17:27:45.561Z,21.60
2023-03-31T17:30:12.325Z,21.92
2023-03-31T17:32:38.732Z,22.00
2023-03-31T17:35:06.513Z,21.93
2023-03-31T17:37:33.203Z,21.65
2023-03-31T17:39:59.548Z,21.70
2023-03-31T17:42:25.879Z,21.66
2023-03-31T17:44:53.258Z,21.16
2023-03-31T17:47:20.347Z,21.27
2023-03-31T17:49:46.678Z,21.31
2023-03-31T17:52:13.428Z,21.48
2023-03-31T17:54:39.818Z,21.52
2023-03-31T17:57:06.226Z,21.55
2023-03-31T17:59:32.651Z,21.45
2023-03-31T18:01:59.229Z,21.41
2023-03-31T18:04:25.871Z,21.47
2023-03-31T18:06:52.238Z,21.52
2023-03-31T18:09:18.582Z,21.57
2023-03-31T18:11:45.671Z,21.72
2023-03-31T18:14:11.991Z,21.91
2023-03-31T18:16:38.376Z,22.05
2023-03-31T18:19:04.719Z,22.05
2023-03-31T18:21:31.311Z,21.99
2023-03-31T18:23:57.653Z,22.05
2023-03-31T18:26:24.171Z,21.89
2023-03-31T18:28:50.746Z,21.74
2023-03-31T18:31:17.232Z,21.56
2023-03-31T18:33:43.632Z,21.43
2023-03-31T18:36:13.721Z,21.47
2023-03-31T18:38:40.156Z,21.49
2023-03-31T18:41:07.212Z,21.75
2023-03-31T18:43:33.647Z,21.92
2023-03-31T18:46:01.289Z,21.92
2023-03-31T18:48:27.717Z,21.93
2023-03-31T18:50:54.068Z,22.04
2023-03-31T18:53:20.984Z,22.09
2023-03-31T18:55:50.458Z,22.07
2023-03-31T18:58:17.379Z,22.07
2023-03-31T19:00:44.041Z,22.12
2023-03-31T19:03:10.808Z,22.12
2023-03-31T19:05:37.382Z,21.93
2023-03-31T19:08:03.750Z,21.98
2023-03-31T19:10:30.085Z,21.98
2023-03-31T19:12:56.447Z,21.82
2023-03-31T19:15:23.249Z,21.52
2023-03-31T19:17:49.630Z,21.46
2023-03-31T19:20:18.815Z,21.52
2023-03-31T19:22:45.700Z,21.53
2023-03-31T19:25:12.371Z,21.43
2023-03-31T19:27:39.470Z,21.45
2023-03-31T19:30:06.153Z,21.49
2023-03-31T19:32:32.559Z,21.48
2023-03-31T19:34:58.965Z,21.44
2023-03-31T19:37:25.716Z,21.45
2023-03-31T19:39:52.248Z,21.43
2023-03-31T19:42:18.659Z,21.41
2023-03-31T19:44:45.613Z,21.43
2023-03-31T19:47:12.321Z,21.41
2023-03-31T19:49:38.671Z,21.42
2023-03-31T19:52:05.597Z,21.43
2023-03-31T19:54:31.996Z,21.42
2023-03-31T19:56:58.370Z,21.33
2023-03-31T19:59:24.728Z,21.40
2023-03-31T20:01:51.573Z,21.21
2023-03-31T20:04:18.359Z,21.36
2023-03-31T20:06:44.872Z,21.51
2023-03-31T20:09:11.359Z,21.42
2023-03-31T20:11:37.938Z,21.46
2023-03-31T20:14:04.306Z,21.53
2023-03-31T20:16:30.908Z,21.52
2023-03-31T20:19:02.105Z,21.51
2023-03-31T20:21:29.059Z,21.48
2023-03-31T20:23:56.002Z,21.47
2023-03-31T20:26:24.976Z,21.40
2023-03-31T20:28:52.134Z,21.30
2023-03-31T20:31:25.386Z,21.26
2023-03-31T20:33:51.972Z,21.27
2023-03-31T20:36:22.662Z,21.21
2023-03-31T20:38:51.295Z,21.17
2023-03-31T20:41:18.853Z,21.16
2023-03-31T20:43:45.533Z,21.16
2023-03-31T20:46:12.133Z,21.19
2023-03-31T20:48:39.939Z,21.22
2023-03-31T20:51:07.549Z,21.21
2023-03-31T20:53:41.911Z,21.17
2023-03-31T20:56:09.207Z,21.15
2023-03-31T20:58:35.520Z,21.14
2023-03-31T21:01:01.896Z,21.13
2023-03-31T21:03:28.322Z,21.10
2023-03-31T21:05:54.666Z,21.09
2023-03-31T21:08:21.464Z,21.08
2023-03-31T21:10:47.846Z,21.08
2023-03-31T21:13:15.390Z,21.06
2023-03-31T21:15:41.976Z,21.05
2023-03-31T21:18:08.356Z,21.04
2023-03-31T21:20:34.744Z,21.03
2023-03-31T21:23:01.094Z,21.02
2023-03-31T21:25:27.482Z,21.00
2023-03-31T21:27:53.816Z,20.99
2023-03-31T21:30:20.252Z,20.98
2023-03-31T21:32:46.651Z,20.97
2023-03-31T21:35:13.024Z,20.96
2023-03-31T21:37:39.452Z,20.95
2023-03-31T21:40:06.160Z,20.93
2023-03-31T21:42:36.121Z,20.93
2023-03-31T21:45:02.638Z,20.92
2023-03-31T21:47:29.007Z,20.90
2023-03-31T21:49:55.392Z,20.90
2023-03-31T21:52:22.425Z,20.90
2023-03-31T21:54:48.764Z,20.88
2023-03-31T21:57:15.121Z,20.89
2023-03-31T21:59:41.541Z,20.87
2023-03-31T22:02:08.046Z,20.86
2023-03-31T22:04:34.533Z,20.86
2023-03-31T22:07:00.861Z,20.86
2023-03-31T22:09:27.586Z,20.84
2023-03-31T22:11:53.919Z,20.84
2023-03-31T22:14:20.290Z,20.83
2023-03-31T22:16:46.645Z,20.83
2023-03-31T22:19:13.131Z,20.81
2023-03-31T22:21:39.506Z,20.81
2023-03-31T22:24:05.988Z,20.80
2023-03-31T22:26:32.355Z,20.82
2023-03-31T22:28:58.777Z,20.82
2023-03-31T22:31:26.249Z,20.82
2023-03-31T22:33:53.194Z,20.79
2023-03-31T22:36:19.566Z,20.78
2023-03-31T22:38:45.896Z,20.78
2023-03-31T22:41:12.207Z,20.77
2023-03-31T22:43:38.614Z,20.76
2023-03-31T22:46:05.734Z,20.76
2023-03-31T22:48:32.277Z,20.74
2023-03-31T22:50:58.658Z,20.72
2023-03-31T22:53:24.995Z,20.72
2023-03-31T22:55:53.914Z,20.72
2023-03-31T22:58:21.472Z,20.73
2023-03-31T23:00:54.416Z,20.72
2023-03-31T23:03:20.757Z,20.71
2023-03-31T23:05:47.109Z,20.71
2023-03-31T23:08:13.448Z,20.70
2023-03-31T23:10:39.772Z,20.68
2023-03-31T23:13:07.071Z,20.67
2023-03-31T23:15:36.958Z,20.66
2023-03-31T23:18:03.368Z,20.66
2023-03-31T23:20:29.727Z,20.67
2023-03-31T23:22:58.325Z,20.66
2023-03-31T23:25:24.686Z,20.64
2023-03-31T23:27:50.999Z,20.64
2023-03-31T23:30:17.482Z,20.63
2023-03-31T23:32:43.868Z,20.61
2023-03-31T23:35:11.404Z,20.62
2023-03-31T23:37:37.762Z,20.61
2023-03-31T23:40:04.668Z,20.60
2023-03-31T23:42:31.317Z,20.60
2023-03-31T23:44:57.643Z,20.59
2023-03-31T23:47:24.556Z,20.59
2023-03-31T23:49:51.076Z,20.59
2023-03-31T23:52:17.391Z,20.58
2023-03-31T23:54:43.780Z,20.58
2023-03-31T23:57:10.365Z,20.56
2023-03-31T23:59:36.758Z,20.56
